Time;durP1;ratioP1;P1;durP2;ratioP2;P2;SDS_P1;SDS_P2;PMS_P1;PMS_P2;Temp;Humidity;BMP_temperature;BMP_pressure;BME280_temperature;BME280_humidity;BME280_pressure;Samples;Min_cycle;Max_cycle;Signal;HPM_P1;HPM_P2
2021/01/29 00:01:18;;;;;;;14.23;5.50;;;;;;;-1.85;75.30;98418.27;1627612;87;21031;-75
2021/01/29 00:03:43;;;;;;;17.37;6.33;;;;;;;-1.98;76.00;98409.81;1627272;86;21181;-75
2021/01/29 00:06:09;;;;;;;15.40;5.83;;;;;;;-2.00;76.43;98412.52;1628428;86;21101;-76
2021/01/29 00:08:35;;;;;;;19.43;6.73;;;;;;;-2.00;76.98;98417.69;1630700;86;21685;-76
2021/01/29 00:11:01;;;;;;;18.40;7.10;;;;;;;-2.08;77.52;98399.38;1629728;87;21653;-74
2021/01/29 00:13:27;;;;;;;15.77;6.93;;;;;;;-2.13;78.12;98405.83;1630194;87;21154;-73
2021/01/29 00:15:52;;;;;;;22.80;7.60;;;;;;;-2.09;78.35;98400.78;1626847;87;21638;-75
2021/01/29 00:18:19;;;;;;;21.27;8.03;;;;;;;-2.11;78.81;98401.34;1627706;87;21418;-73
2021/01/29 00:20:45;;;;;;;24.97;8.23;;;;;;;-2.13;79.37;98396.78;1627789;87;21221;-73
2021/01/29 00:23:11;;;;;;;24.37;8.63;;;;;;;-2.14;79.76;98395.13;1629978;87;20947;-73
2021/01/29 00:25:43;;;;;;;23.30;8.93;;;;;;;-2.18;80.15;98392.77;1626818;87;20932;-75
2021/01/29 00:28:09;;;;;;;19.23;8.43;;;;;;;-2.17;80.44;98395.72;1627185;86;21278;-74
2021/01/29 00:30:35;;;;;;;22.10;9.20;;;;;;;-2.17;80.84;98385.37;1627797;87;21435;-74
2021/01/29 00:33:02;;;;;;;24.30;10.25;;;;;;;-2.11;81.13;98393.59;1604113;87;21250;-74
2021/01/29 00:35:30;;;;;;;22.13;9.50;;;;;;;-2.17;81.52;98387.97;1628238;87;21225;-74
2021/01/29 00:37:56;;;;;;;21.27;9.78;;;;;;;-2.12;81.65;98402.31;1629728;87;21547;-74
2021/01/29 00:40:22;;;;;;;26.73;10.30;;;;;;;-2.13;82.03;98392.42;1627010;87;20999;-73
2021/01/29 00:42:48;;;;;;;27.13;10.93;;;;;;;-2.15;82.28;98389.62;1626560;87;21393;-74
2021/01/29 00:45:16;;;;;;;24.45;10.25;;;;;;;-2.20;82.72;98392.56;1627898;87;21277;-74
2021/01/29 00:47:41;;;;;;;30.35;11.10;;;;;;;-2.23;82.88;98387.14;1625343;87;21203;-75
2021/01/29 00:50:08;;;;;;;27.07;10.50;;;;;;;-2.20;83.05;98380.45;1626694;87;20964;-74
2021/01/29 00:52:34;;;;;;;25.37;10.13;;;;;;;-2.25;82.99;98389.48;1628563;87;21225;-75
2021/01/29 00:54:59;;;;;;;26.60;10.27;;;;;;;-2.26;83.24;98391.26;1629180;87;21142;-75
2021/01/29 00:57:25;;;;;;;26.67;10.13;;;;;;;-2.28;83.25;98389.27;1625441;87;22183;-74
2021/01/29 00:59:51;;;;;;;25.13;8.90;;;;;;;-2.34;83.36;98387.16;1626975;87;21256;-74
2021/01/29 01:02:17;;;;;;;23.17;9.83;;;;;;;-2.31;83.24;98398.55;1628224;87;20998;-75
2021/01/29 01:04:43;;;;;;;28.38;10.38;;;;;;;-2.32;83.45;98386.56;1629571;87;21173;-74
2021/01/29 01:07:12;;;;;;;23.70;9.77;;;;;;;-2.34;83.37;98374.23;1626731;87;20975;-74
2021/01/29 01:09:37;;;;;;;27.35;9.60;;;;;;;-2.35;83.30;98374.72;1628873;87;21266;-76
2021/01/29 01:12:03;;;;;;;24.67;8.67;;;;;;;-2.35;83.32;98380.33;1629579;87;21090;-75
2021/01/29 01:14:29;;;;;;;26.10;9.25;;;;;;;-2.40;83.34;98372.13;1626515;86;21374;-74
2021/01/29 01:16:55;;;;;;;25.83;9.17;;;;;;;-2.36;83.29;98383.88;1642254;87;20958;-73
2021/01/29 01:19:21;;;;;;;25.63;9.33;;;;;;;-2.40;83.17;98387.63;1642860;87;21202;-73
2021/01/29 01:21:46;;;;;;;24.77;8.77;;;;;;;-2.39;83.24;98375.88;1641731;87;21861;-73
2021/01/29 01:24:12;;;;;;;21.50;9.13;;;;;;;-2.40;83.18;98373.41;1642775;85;21001;-74
2021/01/29 01:26:38;;;;;;;28.10;9.23;;;;;;;-2.42;83.18;98370.95;1642152;87;21241;-73
2021/01/29 01:29:04;;;;;;;26.17;8.63;;;;;;;-2.39;83.11;98372.00;1642703;87;21347;-73
2021/01/29 01:31:30;;;;;;;26.65;10.13;;;;;;;-2.38;83.10;98380.57;1642316;87;21240;-73
2021/01/29 01:33:55;;;;;;;24.43;8.43;;;;;;;-2.39;83.11;98367.31;1642323;87;20944;-74
2021/01/29 01:36:21;;;;;;;24.20;8.63;;;;;;;-2.39;83.32;98375.88;1642858;87;21597;-73
2021/01/29 01:38:47;;;;;;;22.70;8.13;;;;;;;-2.41;83.36;98380.36;1642710;87;21687;-73
2021/01/29 01:41:13;;;;;;;23.62;9.28;;;;;;;-2.32;83.22;98373.64;1643904;87;21149;-73
2021/01/29 01:43:38;;;;;;;19.27;8.53;;;;;;;-2.27;83.12;98379.30;1641738;87;21465;-72
2021/01/29 01:46:11;;;;;;;20.60;8.33;;;;;;;-2.31;83.07;98373.19;1643105;87;21002;-72
2021/01/29 01:49:05;;;;;;;23.25;8.43;;;;;;;-2.28;83.21;98372.47;1643733;87;21211;-73
2021/01/29 01:51:39;;;;;;;21.30;7.67;;;;;;;-2.23;82.97;98371.63;1643636;87;21251;-73
2021/01/29 01:54:11;;;;;;;23.22;7.92;;;;;;;-2.15;82.70;98376.69;1665777;84;21740;-73
2021/01/29 01:56:47;;;;;;;19.80;7.95;;;;;;;-2.15;82.63;98377.98;1642850;85;21217;-73
2021/01/29 01:59:17;;;;;;;22.37;7.97;;;;;;;-2.21;82.36;98372.33;1642087;85;21224;-74
2021/01/29 02:01:43;;;;;;;20.27;7.72;;;;;;;-2.15;82.05;98381.86;1643491;87;21217;-73
2021/01/29 02:04:09;;;;;;;20.95;8.10;;;;;;;-2.17;82.25;98376.33;1642950;87;21788;-73
2021/01/29 02:06:46;;;;;;;19.53;8.23;;;;;;;-2.09;81.93;98386.56;1643653;87;22599;-72
2021/01/29 02:09:11;;;;;;;24.45;7.78;;;;;;;-2.05;81.91;98390.53;1642777;86;21942;-72
2021/01/29 02:11:37;;;;;;;21.40;8.87;;;;;;;-2.08;82.03;98400.66;1643138;85;21641;-72
2021/01/29 02:14:03;;;;;;;22.33;8.00;;;;;;;-2.06;81.92;98394.08;1642335;87;21013;-73
2021/01/29 02:16:34;;;;;;;19.50;7.63;;;;;;;-2.06;82.01;98399.25;1645368;87;20958;-73
2021/01/29 02:19:15;;;;;;;21.17;7.92;;;;;;;-2.00;81.88;98402.17;1644823;86;21231;-73
2021/01/29 02:21:54;;;;;;;25.62;8.40;;;;;;;-2.03;81.99;98392.55;1646231;87;21922;-72
2021/01/29 02:24:48;;;;;;;29.07;9.18;;;;;;;-2.06;82.16;98423.81;1645129;86;21692;-72
2021/01/29 02:27:36;;;;;;;20.95;8.38;;;;;;;-2.01;82.32;98403.58;1645731;87;21252;-72
2021/01/29 02:30:32;;;;;;;23.75;8.38;;;;;;;-2.02;82.50;98399.34;1645388;87;21669;-72
2021/01/29 02:33:33;;;;;;;21.60;8.05;;;;;;;-2.04;82.45;98405.93;1646348;87;21672;-72
2021/01/29 02:36:44;;;;;;;21.12;7.90;;;;;;;-2.03;82.64;98396.42;1645181;87;21669;-73
2021/01/29 02:39:22;;;;;;;24.07;8.85;;;;;;;-1.96;82.76;98392.40;1646132;83;21263;-71
2021/01/29 02:42:06;;;;;;;;;;;;;;;-2.12;83.11;98389.38;1649011;87;21276;-72
2021/01/29 02:44:41;;;;;;;22.82;8.70;;;;;;;-2.12;83.38;98386.80;1645100;85;20648;-72
2021/01/29 02:47:14;;;;;;;19.20;7.62;;;;;;;-2.09;83.33;98389.14;1646252;87;21232;-72
2021/01/29 02:50:04;;;;;;;25.57;9.28;;;;;;;-2.09;83.29;98379.61;1621013;87;21497;-73
2021/01/29 02:52:38;;;;;;;20.65;7.90;;;;;;;-2.08;83.60;98385.59;1645558;86;21164;-72
2021/01/29 02:55:21;;;;;;;22.52;9.15;;;;;;;-2.07;83.25;98385.95;1646182;87;21180;-72
2021/01/29 02:58:12;;;;;;;23.80;8.00;;;;;;;-2.10;83.48;98379.73;1646190;84;21204;-73
2021/01/29 03:00:43;;;;;;;21.35;8.20;;;;;;;-2.12;83.54;98379.04;1623785;88;21261;-72
2021/01/29 03:03:38;;;;;;;22.17;7.97;;;;;;;-2.07;83.44;98371.73;1624716;88;21248;-73
2021/01/29 03:06:18;;;;;;;21.33;8.25;;;;;;;-2.07;83.29;98381.59;1623937;86;21267;-72
2021/01/29 03:08:55;;;;;;;18.52;7.90;;;;;;;-2.04;83.27;98380.55;1625104;88;21671;-71
2021/01/29 03:11:41;;;;;;;24.65;9.00;;;;;;;-2.03;83.15;98369.27;1623245;87;21292;-71
2021/01/29 03:14:22;;;;;;;25.80;8.23;;;;;;;-2.09;83.03;98367.16;1625290;87;21229;-72
2021/01/29 03:16:52;;;;;;;22.67;8.00;;;;;;;-2.05;83.33;98369.39;1615036;86;21983;-72
2021/01/29 03:19:31;;;;;;;20.00;8.05;;;;;;;-2.05;83.45;98380.19;1597115;88;21206;-72
2021/01/29 03:22:04;;;;;;;17.95;7.97;;;;;;;-2.06;83.41;98361.27;1597685;88;21535;-72
2021/01/29 03:24:38;;;;;;;21.00;7.92;;;;;;;-2.02;83.23;98363.13;1617145;86;21448;-72
2021/01/29 03:27:08;;;;;;;24.35;8.15;;;;;;;-1.97;83.17;98364.91;1616571;88;21198;-72
2021/01/29 03:29:39;;;;;;;19.30;7.85;;;;;;;-2.02;83.42;98367.86;1596286;88;21986;-72
2021/01/29 03:32:05;;;;;;;23.00;8.90;;;;;;;-2.04;83.46;98383.13;1615704;88;22373;-72
2021/01/29 03:34:39;;;;;;;20.68;8.20;;;;;;;-2.06;83.41;98379.38;1616423;88;21236;-72
2021/01/29 03:37:14;;;;;;;19.67;8.28;;;;;;;-2.09;83.77;98362.80;1614259;88;21241;-72
2021/01/29 03:39:40;;;;;;;18.25;8.03;;;;;;;-2.06;83.79;98342.36;1614420;87;21228;-72
2021/01/29 03:42:23;;;;;;;19.80;7.62;;;;;;;-2.12;84.16;98363.52;1615161;88;21324;-71
2021/01/29 03:45:03;;;;;;;22.10;8.03;;;;;;;-2.12;84.23;98355.77;1594543;88;21248;-72
2021/01/29 03:47:40;;;;;;;16.60;7.30;;;;;;;-2.03;84.16;98364.09;1615989;88;21542;-71
2021/01/29 03:50:11;;;;;;;18.85;7.35;;;;;;;-2.06;84.09;98351.41;1614514;87;21267;-71
2021/01/29 03:53:01;;;;;;;19.30;7.45;;;;;;;-2.09;84.39;98351.64;1616680;87;21226;-71
2021/01/29 03:55:46;;;;;;;17.82;7.30;;;;;;;-2.00;84.27;98365.15;1612556;88;21263;-73
2021/01/29 03:58:30;;;;;;;20.88;7.22;;;;;;;-2.09;84.29;98368.45;1617509;88;21193;-71
2021/01/29 04:01:03;;;;;;;19.05;7.40;;;;;;;-2.11;84.58;98362.56;1615852;87;21225;-73
2021/01/29 04:03:39;;;;;;;20.05;8.03;;;;;;;-2.06;84.61;98355.28;1615346;88;21224;-71
2021/01/29 04:06:16;;;;;;;21.87;8.25;;;;;;;-2.09;84.75;98378.80;1616722;87;21257;-71
2021/01/29 04:09:10;;;;;;;19.40;8.25;;;;;;;-2.08;85.01;98380.42;1614210;87;21251;-71
2021/01/29 04:11:53;;;;;;;22.02;7.80;;;;;;;-2.08;85.02;98359.73;1611887;88;21205;-71
2021/01/29 04:14:30;;;;;;;18.77;7.25;;;;;;;-2.08;85.25;98364.91;1613939;88;21692;-72
2021/01/29 04:16:56;;;;;;;;;;;;;;;-2.04;85.03;98353.39;1621137;86;21207;-71
2021/01/29 04:19:23;;;;;;;18.02;7.08;;;;;;;-2.03;85.21;98355.05;1616302;88;20198;-71
2021/01/29 04:22:13;;;;;;;15.45;5.90;;;;;;;-2.01;85.19;98350.56;1594949;88;21207;-72
2021/01/29 04:24:43;;;;;;;18.62;7.30;;;;;;;-1.98;85.09;98368.42;1618414;88;21236;-72
2021/01/29 04:27:18;;;;;;;18.27;7.42;;;;;;;-1.97;85.14;98354.56;1594464;88;21236;-71
2021/01/29 04:29:52;;;;;;;17.52;7.55;;;;;;;-1.99;85.21;98359.86;1615479;88;21229;-71
2021/01/29 04:32:21;;;;;;;18.07;7.03;;;;;;;-2.06;85.47;98358.69;1616218;88;21645;-71
2021/01/29 04:34:51;;;;;;;20.12;7.60;;;;;;;-2.02;85.54;98365.27;1615311;88;21588;-71
2021/01/29 04:37:32;;;;;;;18.67;7.37;;;;;;;-2.05;85.45;98354.32;1618228;88;21223;-71
2021/01/29 04:40:00;;;;;;;17.55;7.30;;;;;;;-2.02;85.46;98348.45;1613334;88;21225;-71
2021/01/29 04:42:58;;;;;;;15.13;7.28;;;;;;;-2.02;85.59;98351.50;1617575;88;21655;-71
2021/01/29 04:45:35;;;;;;;19.65;7.67;;;;;;;-1.93;85.46;98355.94;1613127;88;21216;-72
2021/01/29 04:48:39;;;;;;;17.40;6.80;;;;;;;-1.94;85.54;98364.66;1607132;88;26789;-71
2021/01/29 04:51:40;;;;;;;17.10;6.95;;;;;;;-1.95;85.32;98370.77;1617042;88;21233;-70
2021/01/29 04:54:29;;;;;;;17.02;7.05;;;;;;;-1.98;85.54;98363.25;1616324;87;21190;-72
2021/01/29 04:57:26;;;;;;;17.12;6.87;;;;;;;-2.04;85.53;98363.25;1613571;88;21239;-73
2021/01/29 05:00:49;;;;;;;17.90;7.83;;;;;;;-1.95;85.60;98358.32;1611147;88;21695;-72
2021/01/29 05:03:46;;;;;;;16.42;7.40;;;;;;;-1.88;85.60;98395.23;1612600;88;21220;-72
2021/01/29 05:06:22;;;;;;;13.60;6.55;;;;;;;-1.98;85.92;98380.06;1614149;88;27096;-72
2021/01/29 05:09:46;;;;;;;16.77;6.67;;;;;;;-1.95;85.81;98362.20;1612173;88;21248;-72
2021/01/29 05:13:02;;;;;;;19.20;7.20;;;;;;;-1.94;85.88;98352.19;1615768;87;21666;-72
2021/01/29 05:16:00;;;;;;;16.07;6.90;;;;;;;-1.82;85.24;98361.11;1611107;88;21232;-72
2021/01/29 05:18:53;;;;;;;14.83;6.70;;;;;;;-1.78;85.53;98350.03;1614511;87;21261;-72
2021/01/29 05:21:56;;;;;;;15.32;7.20;;;;;;;-1.81;85.69;98352.39;1622095;87;21277;-72
2021/01/29 05:24:46;;;;;;;15.60;6.58;;;;;;;-1.89;85.88;98350.08;1611554;88;21697;-72
2021/01/29 05:27:46;;;;;;;15.93;6.75;;;;;;;-1.91;86.10;98356.66;1612076;88;21707;-72
2021/01/29 05:30:35;;;;;;;14.68;6.70;;;;;;;-1.95;86.19;98355.25;1611666;88;21235;-72
2021/01/29 05:33:34;;;;;;;17.65;7.17;;;;;;;-1.88;86.18;98353.84;1572618;88;21281;-72
2021/01/29 05:36:27;;;;;;;17.87;6.47;;;;;;;-1.84;86.31;98350.05;1613695;87;21240;-72
2021/01/29 05:39:20;;;;;;;13.65;6.12;;;;;;;-1.92;86.42;98356.30;1610564;88;22330;-73
2021/01/29 05:42:20;;;;;;;13.83;6.35;;;;;;;-1.84;86.28;98348.75;1619060;87;21268;-72
2021/01/29 05:45:15;;;;;;;14.55;6.03;;;;;;;-1.94;86.40;98356.91;1615206;88;21230;-71
2021/01/29 05:48:16;;;;;;;17.10;6.35;;;;;;;-1.88;86.45;98351.25;1610913;88;21247;-71
2021/01/29 05:51:10;;;;;;;14.90;6.35;;;;;;;-1.92;86.71;98370.53;1616179;87;21214;-72
2021/01/29 05:54:13;;;;;;;14.80;5.30;;;;;;;-1.97;86.75;98354.56;1613082;88;21750;-71
2021/01/29 05:57:35;;;;;;;14.03;5.62;;;;;;;-1.89;86.54;98356.06;1615838;87;21533;-71
2021/01/29 06:00:25;;;;;;;12.45;5.40;;;;;;;-1.92;86.68;98361.96;1617017;88;21684;-71
2021/01/29 06:03:14;;;;;;;12.70;5.50;;;;;;;-1.84;86.66;98351.33;1615607;86;21960;-71
2021/01/29 06:06:11;;;;;;;11.80;5.12;;;;;;;-1.77;86.44;98350.40;1610724;88;21694;-70
2021/01/29 06:09:20;;;;;;;13.38;4.95;;;;;;;-1.76;86.44;98362.85;1615648;88;21204;-70
2021/01/29 06:12:25;;;;;;;13.53;5.08;;;;;;;-1.78;86.39;98368.63;1547202;91;21698;-72
2021/01/29 06:15:48;;;;;;;13.50;5.65;;;;;;;-1.74;86.34;98370.01;1564187;91;21244;-72
2021/01/29 06:18:31;;;;;;;11.65;4.92;;;;;;;-1.68;86.46;98373.41;1567281;90;22683;-72
2021/01/29 06:21:08;;;;;;;10.93;5.15;;;;;;;-1.71;86.40;98367.17;1590398;88;21651;-72
2021/01/29 06:24:04;;;;;;;13.22;5.03;;;;;;;-1.63;86.47;98372.59;1562690;88;34007;-70
2021/01/29 06:26:52;;;;;;;10.38;4.95;;;;;;;-1.74;86.57;98375.19;1590273;89;21173;-70
2021/01/29 06:29:32;;;;;;;11.68;4.80;;;;;;;-1.75;86.98;98378.25;1590621;89;21271;-70
2021/01/29 06:32:42;;;;;;;9.93;4.47;;;;;;;-1.75;87.01;98364.50;1591707;88;21322;-71
2021/01/29 06:35:37;;;;;;;10.75;4.67;;;;;;;-1.75;87.24;98363.21;1591698;89;21757;-70
2021/01/29 06:38:30;;;;;;;8.78;4.85;;;;;;;-1.74;87.38;98380.36;1588879;88;21303;-72
2021/01/29 06:41:20;;;;;;;10.13;4.58;;;;;;;-1.73;87.38;98370.37;1591924;89;21595;-71
2021/01/29 06:44:12;;;;;;;13.72;5.78;;;;;;;-1.70;87.44;98367.05;1592455;88;21244;-73
2021/01/29 06:47:08;;;;;;;9.48;5.15;;;;;;;-1.72;87.76;98381.89;1590187;88;21243;-72
2021/01/29 06:50:02;;;;;;;9.90;4.58;;;;;;;-1.62;87.68;98374.20;1591147;89;21674;-72
2021/01/29 06:52:34;;;;;;;9.55;5.45;;;;;;;-1.68;87.83;98377.28;1590721;89;21597;-73
2021/01/29 06:55:27;;;;;;;10.15;5.03;;;;;;;-1.72;88.04;98379.79;1590165;89;21791;-75
2021/01/29 06:58:39;;;;;;;11.20;5.08;;;;;;;-1.64;87.54;98384.69;1593177;88;21575;-74
2021/01/29 07:01:19;;;;;;;10.53;5.20;;;;;;;-1.65;87.66;98422.33;1588259;89;22119;-73
2021/01/29 07:04:07;;;;;;;11.53;5.83;;;;;;;-1.68;87.77;98370.36;1592315;89;21213;-76
2021/01/29 07:07:01;;;;;;;10.65;4.95;;;;;;;-1.67;87.43;98381.53;1588827;88;21283;-74
2021/01/29 07:10:21;;;;;;;12.63;5.33;;;;;;;-1.70;87.36;98376.59;1590893;88;21251;-70
2021/01/29 07:13:12;;;;;;;15.10;5.85;;;;;;;-1.74;87.19;98387.67;1589231;89;21205;-73
2021/01/29 07:16:18;;;;;;;9.78;5.22;;;;;;;-1.69;86.89;98380.84;1590458;89;21709;-72
2021/01/29 07:19:04;;;;;;;11.35;5.50;;;;;;;-1.64;86.82;98374.81;1591116;89;21315;-72
2021/01/29 07:21:56;;;;;;;11.22;5.50;;;;;;;-1.63;86.60;98368.70;1590711;88;21237;-71
2021/01/29 07:24:55;;;;;;;9.23;5.30;;;;;;;-1.55;86.08;98381.84;1559777;90;21854;-71
2021/01/29 07:27:49;;;;;;;8.35;4.53;;;;;;;-1.54;86.01;98365.38;1589427;90;21193;-71
2021/01/29 07:30:29;;;;;;;10.72;5.30;;;;;;;-1.53;85.84;98376.06;1590761;89;21803;-72
2021/01/29 07:33:32;;;;;;;13.18;5.50;;;;;;;-1.56;85.78;98371.13;1590336;89;21715;-72
2021/01/29 07:36:40;;;;;;;11.93;5.42;;;;;;;-1.48;85.66;98366.15;1592295;89;21220;-73
2021/01/29 07:39:47;;;;;;;10.28;5.22;;;;;;;-1.43;85.24;98368.85;1587071;88;21278;-74
2021/01/29 07:42:30;;;;;;;10.38;5.60;;;;;;;-1.43;85.30;98362.37;1592368;88;21259;-72
2021/01/29 07:45:16;;;;;;;11.00;5.67;;;;;;;-1.45;85.14;98359.43;1590363;89;21250;-73
2021/01/29 07:47:56;;;;;;;10.63;4.75;;;;;;;-1.46;85.14;98373.34;1590647;89;21276;-73
2021/01/29 07:50:35;;;;;;;11.63;5.42;;;;;;;-1.34;85.16;98360.34;1590331;89;21697;-74
2021/01/29 07:53:33;;;;;;;9.65;5.08;;;;;;;-1.34;85.00;98360.34;1588573;88;21288;-74
2021/01/29 07:56:23;;;;;;;10.43;5.60;;;;;;;-1.36;84.88;98391.53;1590865;89;21268;-75
2021/01/29 07:59:35;;;;;;;12.70;5.60;;;;;;;-1.41;85.08;98361.77;1588863;88;22194;-76
2021/01/29 08:02:57;;;;;;;9.95;4.72;;;;;;;-1.34;85.03;98346.09;1590367;88;21287;-73
2021/01/29 08:05:33;;;;;;;9.95;5.25;;;;;;;-1.43;85.00;98354.61;1591225;89;21263;-73
2021/01/29 08:08:05;;;;;;;11.73;5.62;;;;;;;-1.43;84.77;98371.44;1591591;89;21275;-75
2021/01/29 08:10:34;;;;;;;9.85;5.37;;;;;;;-1.36;84.78;98368.23;1591498;88;21620;-74
2021/01/29 08:13:35;;;;;;;12.28;5.65;;;;;;;-1.45;85.00;98334.84;1590654;88;22062;-75
2021/01/29 08:16:35;;;;;;;11.05;5.35;;;;;;;-1.50;85.14;98339.58;1592144;89;21260;-74
2021/01/29 08:19:22;;;;;;;10.70;5.33;;;;;;;-1.39;84.85;98346.47;1596744;89;21253;-76
2021/01/29 08:22:25;;;;;;;11.20;5.78;;;;;;;-1.30;84.53;98341.03;1596186;88;21196;-74
2021/01/29 08:25:15;;;;;;;9.83;5.12;;;;;;;-1.23;84.20;98349.91;1594850;87;21227;-74
2021/01/29 08:28:13;;;;;;;9.50;5.55;;;;;;;-1.33;83.87;98351.64;1581101;89;22239;-73
2021/01/29 08:31:36;;;;;;;10.98;5.28;;;;;;;-1.25;83.93;98340.16;1604258;87;21275;-77
2021/01/29 08:34:52;;;;;;;11.68;5.30;;;;;;;-1.32;83.94;98344.19;1602081;89;21255;-77
2021/01/29 08:37:35;;;;;;;11.43;5.42;;;;;;;-1.34;84.01;98337.03;1601648;87;21275;-71
2021/01/29 08:40:23;;;;;;;12.80;5.70;;;;;;;-1.32;84.03;98340.31;1602949;87;21271;-74
2021/01/29 08:43:26;;;;;;;10.93;5.60;;;;;;;-1.29;83.84;98338.77;1580406;89;21629;-74
2021/01/29 08:46:32;;;;;;;10.20;5.45;;;;;;;-1.18;83.67;98336.14;1602057;89;21278;-76
2021/01/29 08:49:34;;;;;;;11.70;6.00;;;;;;;-1.13;83.27;98341.75;1601559;89;21223;-74
2021/01/29 08:52:22;;;;;;;11.35;5.80;;;;;;;-1.02;82.70;98338.76;1602562;87;21278;-76
2021/01/29 08:55:02;;;;;;;10.43;5.87;;;;;;;-1.00;82.80;98335.55;1600478;89;21212;-74
2021/01/29 08:57:57;;;;;;;11.22;5.25;;;;;;;-1.02;82.41;98350.41;1603097;89;21601;-75
2021/01/29 09:00:27;;;;;;;10.82;5.67;;;;;;;-1.05;82.15;98337.72;1598346;87;21247;-75
2021/01/29 09:03:07;;;;;;;10.88;5.50;;;;;;;-0.98;82.05;98338.83;1599849;89;21261;-76
2021/01/29 09:05:33;;;;;;;11.43;5.80;;;;;;;-0.97;82.16;98341.29;1599222;89;21172;-75
2021/01/29 09:08:03;;;;;;;10.10;4.97;;;;;;;-1.06;82.22;98349.02;1597733;88;21232;-76
2021/01/29 09:11:10;;;;;;;10.82;5.37;;;;;;;-0.93;82.29;98340.09;1601593;89;22114;-75
2021/01/29 09:13:36;;;;;;;9.53;5.17;;;;;;;-0.97;81.99;98345.66;1566524;89;21257;-75
2021/01/29 09:16:25;;;;;;;10.30;5.27;;;;;;;-0.91;81.86;98345.97;1584448;87;21061;-75
2021/01/29 09:19:04;;;;;;;9.28;5.03;;;;;;;-0.91;81.70;98358.11;1583964;88;21240;-73
2021/01/29 09:22:01;;;;;;;12.58;5.67;;;;;;;-0.92;81.38;98352.57;1628368;87;21181;-74
2021/01/29 09:25:06;;;;;;;9.35;4.87;;;;;;;-1.14;81.52;98340.09;1630695;87;21687;-73
2021/01/29 09:27:52;;;;;;;10.85;5.15;;;;;;;-1.03;81.68;98318.48;1606620;87;21292;-73
2021/01/29 09:30:56;;;;;;;11.00;4.72;;;;;;;-1.03;81.68;98318.48;1627753;87;21276;-74
2021/01/29 09:33:28;;;;;;;11.22;5.53;;;;;;;-0.98;81.35;98331.05;1618186;86;21298;-74
2021/01/29 09:36:03;;;;;;;13.80;5.60;;;;;;;-1.03;81.62;98340.98;1626639;87;21665;-73
2021/01/29 09:38:34;;;;;;;10.85;5.90;;;;;;;-0.97;81.46;98337.89;1604682;87;21202;-75
2021/01/29 09:41:22;;;;;;;10.90;5.40;;;;;;;-1.27;82.25;98333.82;1629394;86;21190;-75
2021/01/29 09:44:05;;;;;;;15.83;5.95;;;;;;;-1.03;82.06;98334.52;1628755;87;21221;-77
2021/01/29 09:46:34;;;;;;;11.22;5.80;;;;;;;-1.07;82.31;98335.70;1630253;87;21256;-76
2021/01/29 09:49:07;;;;;;;14.75;6.40;;;;;;;-1.07;81.83;98331.36;1628421;87;21207;-75
2021/01/29 09:52:08;;;;;;;11.55;5.83;;;;;;;-1.07;81.83;98331.36;1628761;87;21555;-74
2021/01/29 09:54:52;;;;;;;13.38;6.30;;;;;;;-1.13;81.48;98328.80;1628495;86;21291;-75
2021/01/29 09:57:45;;;;;;;11.28;6.05;;;;;;;-1.13;81.48;98328.80;1628784;86;21224;-74
2021/01/29 10:00:25;;;;;;;12.13;6.40;;;;;;;-1.01;81.23;98346.86;1589163;86;21354;-74
2021/01/29 10:03:01;;;;;;;14.50;6.75;;;;;;;-1.01;81.57;98342.52;1626227;86;21265;-75
2021/01/29 10:05:50;;;;;;;15.95;6.80;;;;;;;-0.97;81.44;98353.44;1627176;87;22022;-75
2021/01/29 10:08:46;;;;;;;12.40;6.35;;;;;;;-0.93;81.50;98345.77;1627529;86;21263;-75
2021/01/29 10:11:23;;;;;;;14.55;6.87;;;;;;;-0.94;81.25;98343.62;1627799;84;21268;-74
2021/01/29 10:14:19;;;;;;;15.60;7.80;;;;;;;-0.94;81.23;98349.30;1627789;87;21213;-73
2021/01/29 10:17:08;;;;;;;13.78;7.30;;;;;;;-1.06;81.23;98350.31;1626256;87;21237;-73
2021/01/29 10:19:42;;;;;;;13.18;6.70;;;;;;;-0.98;81.43;98346.60;1624433;86;22024;-74
2021/01/29 10:22:40;;;;;;;17.05;7.70;;;;;;;-0.95;81.32;98333.39;1625652;86;21659;-75
2021/01/29 10:25:29;;;;;;;14.85;7.08;;;;;;;-0.97;81.36;98341.29;1621907;86;21255;-74
2021/01/29 10:28:21;;;;;;;14.80;7.72;;;;;;;-0.98;81.53;98334.94;1621834;88;21173;-74
2021/01/29 10:30:58;;;;;;;15.65;7.47;;;;;;;-1.16;81.46;98348.48;1621723;88;21215;-74
2021/01/29 10:33:34;;;;;;;15.98;8.00;;;;;;;-1.07;81.63;98334.41;1617496;86;22272;-76
2021/01/29 10:36:04;;;;;;;14.30;7.35;;;;;;;-1.01;81.54;98349.45;1621015;88;21178;-77
2021/01/29 10:39:04;;;;;;;13.18;6.35;;;;;;;-1.02;81.24;98334.88;1622818;86;21269;-74
2021/01/29 10:41:50;;;;;;;15.45;6.78;;;;;;;-0.93;81.01;98335.40;1622509;87;21248;-73
2021/01/29 10:44:28;;;;;;;14.33;7.00;;;;;;;-0.92;80.67;98345.64;1620779;87;21268;-72
2021/01/29 10:47:22;;;;;;;12.37;5.92;;;;;;;-0.87;80.46;98356.92;1620352;88;21264;-72
2021/01/29 10:49:57;;;;;;;13.90;6.85;;;;;;;-0.83;80.35;98345.33;1627906;86;21170;-73
2021/01/29 10:53:13;;;;;;;16.10;6.90;;;;;;;-0.82;80.31;98352.16;1621560;86;21238;-74
2021/01/29 10:55:57;;;;;;;13.45;6.92;;;;;;;-0.94;80.38;98354.48;1621435;88;21253;-71
2021/01/29 10:58:40;;;;;;;12.80;6.22;;;;;;;-0.92;80.20;98356.00;1621009;86;22360;-72
2021/01/29 11:01:28;;;;;;;13.80;6.62;;;;;;;-0.94;79.99;98363.55;1622098;88;21268;-72
2021/01/29 11:04:05;;;;;;;13.85;6.80;;;;;;;-1.04;80.22;98347.11;1626657;86;21727;-72
2021/01/29 11:06:57;;;;;;;13.75;6.80;;;;;;;-0.98;80.26;98352.63;1622681;88;27316;-73
2021/01/29 11:09:35;;;;;;;13.93;6.83;;;;;;;-0.93;80.21;98361.31;1618472;88;21687;-73
2021/01/29 11:12:36;;;;;;;14.53;7.40;;;;;;;-1.06;80.42;98361.97;1621991;87;21240;-73
2021/01/29 11:15:10;;;;;;;11.48;6.40;;;;;;;-1.05;80.22;98362.33;1623280;87;22063;-74
2021/01/29 11:17:41;;;;;;;14.83;8.08;;;;;;;-1.00;80.21;98358.87;1621851;86;21282;-71
2021/01/29 11:20:24;;;;;;;14.18;7.17;;;;;;;-1.07;80.43;98357.72;1619165;87;21229;-71
2021/01/29 11:23:10;;;;;;;17.35;7.65;;;;;;;-1.01;80.43;98344.27;1621035;86;21699;-71
2021/01/29 11:26:31;;;;;;;14.33;8.45;;;;;;;-1.05;80.80;98350.67;1610719;87;21299;-73
2021/01/29 11:29:16;;;;;;;13.98;7.30;;;;;;;-1.01;80.88;98362.40;1620440;87;21252;-71
2021/01/29 11:31:45;;;;;;;17.87;8.08;;;;;;;-1.05;80.89;98364.91;1619885;88;21478;-75
2021/01/29 11:34:25;;;;;;;14.85;8.08;;;;;;;-1.07;80.95;98346.91;1619461;88;21241;-72
2021/01/29 11:37:16;;;;;;;16.52;8.33;;;;;;;-0.95;80.89;98353.66;1618534;88;21397;-73
2021/01/29 11:40:07;;;;;;;17.20;8.50;;;;;;;-0.85;81.33;98352.42;1619916;87;21199;-71
2021/01/29 11:42:38;;;;;;;15.53;7.83;;;;;;;-0.94;80.85;98355.77;1621118;87;21705;-71
2021/01/29 11:45:11;;;;;;;16.97;8.43;;;;;;;-0.92;80.73;98349.52;1620561;88;21309;-73
2021/01/29 11:48:01;;;;;;;19.90;7.80;;;;;;;-0.80;80.60;98364.98;1596029;88;21225;-72
2021/01/29 11:50:55;;;;;;;16.90;8.70;;;;;;;-0.79;80.18;98362.27;1622043;88;21229;-72
2021/01/29 11:53:49;;;;;;;17.35;9.00;;;;;;;-0.85;80.40;98367.16;1618949;86;21240;-73
2021/01/29 11:56:26;;;;;;;14.90;8.10;;;;;;;-0.83;80.58;98363.47;1621356;88;21689;-77
2021/01/29 11:59:06;;;;;;;15.65;7.95;;;;;;;-0.73;80.50;98355.73;1621599;88;21658;-73
2021/01/29 12:01:46;;;;;;;18.10;8.65;;;;;;;-0.84;80.28;98355.36;1621211;87;21271;-74
2021/01/29 12:04:34;;;;;;;18.07;8.75;;;;;;;-0.84;80.28;98355.36;1621741;86;21253;-75
2021/01/29 12:07:07;;;;;;;17.10;8.53;;;;;;;-0.83;80.16;98367.35;1618541;88;21178;-76
2021/01/29 12:09:59;;;;;;;19.05;8.55;;;;;;;-0.87;80.23;98360.80;1621315;88;21281;-72
2021/01/29 12:12:29;;;;;;;18.25;8.08;;;;;;;-0.84;80.49;98356.66;1603216;87;21246;-74
2021/01/29 12:15:14;;;;;;;17.82;8.40;;;;;;;-0.90;80.41;98363.65;1622834;88;21237;-73
2021/01/29 12:17:42;;;;;;;17.17;8.70;;;;;;;-0.90;80.41;98363.65;1623457;88;21301;-72
2021/01/29 12:20:10;;;;;;;;;;;;;;;-0.85;80.49;98369.26;1631853;86;21244;-73
2021/01/29 12:22:56;;;;;;;17.90;8.58;;;;;;;-0.73;80.20;98338.44;1628874;87;21933;-72
2021/01/29 12:26:01;;;;;;;21.02;10.82;;;;;;;-0.73;80.20;98338.44;1601633;86;24158;-70
2021/01/29 12:29:07;;;;;;;21.00;9.80;;;;;;;-0.69;80.63;98356.31;1614601;85;21257;-72
2021/01/29 12:31:42;;;;;;;21.57;9.80;;;;;;;-0.73;80.17;98351.39;1584371;90;21612;-72
2021/01/29 12:34:18;;;;;;;20.88;9.23;;;;;;;-0.84;80.37;98345.00;1624298;87;21284;-72
2021/01/29 12:36:45;;;;;;;20.00;9.30;;;;;;;-0.84;80.66;98348.89;1627109;87;21380;-71
2021/01/29 12:39:22;;;;;;;20.72;9.25;;;;;;;-0.75;80.63;98342.91;1605379;87;21293;-73
2021/01/29 12:41:56;;;;;;;18.00;9.30;;;;;;;-0.71;80.40;98334.42;1631357;87;21571;-71